sensor_id;sensor_type;location;lat;lon;timestamp;P1;durP1;ratioP1;P2;durP2;ratioP2
73015;SDS011;61893;50.074;14.440;2022-09-30T00:01:02;16.98;;;9.82;;
73015;SDS011;61893;50.074;14.440;2022-09-30T00:03:37;18.08;;;10.93;;
73015;SDS011;61893;50.074;14.440;2022-09-30T00:06:04;18.80;;;10.90;;
73015;SDS011;61893;50.074;14.440;2022-09-30T00:08:31;21.27;;;11.73;;
73015;SDS011;61893;50.074;14.440;2022-09-30T00:11:13;16.50;;;11.20;;
73015;SDS011;61893;50.074;14.440;2022-09-30T00:13:41;16.80;;;11.45;;
73015;SDS011;61893;50.074;14.440;2022-09-30T00:16:07;20.58;;;11.52;;
73015;SDS011;61893;50.074;14.440;2022-09-30T00:18:34;22.45;;;11.80;;
73015;SDS011;61893;50.074;14.440;2022-09-30T00:21:01;20.33;;;12.43;;
73015;SDS011;61893;50.074;14.440;2022-09-30T00:23:27;20.40;;;12.23;;
73015;SDS011;61893;50.074;14.440;2022-09-30T00:25:57;18.38;;;11.85;;
73015;SDS011;61893;50.074;14.440;2022-09-30T00:28:24;20.85;;;10.65;;
73015;SDS011;61893;50.074;14.440;2022-09-30T00:30:51;19.75;;;11.98;;
73015;SDS011;61893;50.074;14.440;2022-09-30T00:33:17;18.38;;;11.70;;
73015;SDS011;61893;50.074;14.440;2022-09-30T00:35:43;16.88;;;10.38;;
73015;SDS011;61893;50.074;14.440;2022-09-30T00:38:08;21.80;;;11.15;;
73015;SDS011;61893;50.074;14.440;2022-09-30T00:40:36;18.40;;;10.55;;
73015;SDS011;61893;50.074;14.440;2022-09-30T00:43:08;19.35;;;11.52;;
73015;SDS011;61893;50.074;14.440;2022-09-30T00:45:47;17.98;;;10.55;;
73015;SDS011;61893;50.074;14.440;2022-09-30T00:48:29;18.80;;;11.52;;
73015;SDS011;61893;50.074;14.440;2022-09-30T00:50:59;17.92;;;11.88;;
73015;SDS011;61893;50.074;14.440;2022-09-30T00:53:28;17.00;;;10.88;;
73015;SDS011;61893;50.074;14.440;2022-09-30T01:01:08;18.20;;;11.18;;
73015;SDS011;61893;50.074;14.440;2022-09-30T01:03:35;17.77;;;11.20;;
73015;SDS011;61893;50.074;14.440;2022-09-30T01:06:08;20.05;;;12.02;;
73015;SDS011;61893;50.074;14.440;2022-09-30T01:08:35;20.55;;;11.88;;
73015;SDS011;61893;50.074;14.440;2022-09-30T01:11:03;16.00;;;10.85;;
73015;SDS011;61893;50.074;14.440;2022-09-30T01:13:29;21.23;;;11.15;;
73015;SDS011;61893;50.074;14.440;2022-09-30T01:27:17;19.42;;;12.18;;
73015;SDS011;61893;50.074;14.440;2022-09-30T01:32:41;25.55;;;14.30;;
73015;SDS011;61893;50.074;14.440;2022-09-30T01:35:24;19.67;;;12.00;;
73015;SDS011;61893;50.074;14.440;2022-09-30T01:43:05;21.70;;;13.60;;
73015;SDS011;61893;50.074;14.440;2022-09-30T01:46:01;24.45;;;13.82;;
73015;SDS011;61893;50.074;14.440;2022-09-30T01:48:39;25.77;;;13.43;;
73015;SDS011;61893;50.074;14.440;2022-09-30T01:51:22;24.55;;;14.55;;
73015;SDS011;61893;50.074;14.440;2022-09-30T01:54:00;21.00;;;13.30;;
73015;SDS011;61893;50.074;14.440;2022-09-30T01:56:33;23.52;;;14.35;;
73015;SDS011;61893;50.074;14.440;2022-09-30T02:01:45;30.15;;;14.50;;
73015;SDS011;61893;50.074;14.440;2022-09-30T02:04:20;22.80;;;13.82;;
73015;SDS011;61893;50.074;14.440;2022-09-30T02:06:52;20.92;;;12.88;;
73015;SDS011;61893;50.074;14.440;2022-09-30T02:09:28;23.85;;;14.05;;
73015;SDS011;61893;50.074;14.440;2022-09-30T02:12:03;22.50;;;14.20;;
73015;SDS011;61893;50.074;14.440;2022-09-30T02:14:37;25.15;;;13.73;;
73015;SDS011;61893;50.074;14.440;2022-09-30T02:17:08;22.08;;;13.65;;
73015;SDS011;61893;50.074;14.440;2022-09-30T02:19:53;25.67;;;14.48;;
73015;SDS011;61893;50.074;14.440;2022-09-30T02:22:25;27.63;;;14.40;;
73015;SDS011;61893;50.074;14.440;2022-09-30T02:25:04;24.80;;;14.38;;
73015;SDS011;61893;50.074;14.440;2022-09-30T02:27:33;22.70;;;13.73;;
73015;SDS011;61893;50.074;14.440;2022-09-30T02:30:05;23.77;;;14.20;;
73015;SDS011;61893;50.074;14.440;2022-09-30T02:32:34;23.10;;;14.70;;
73015;SDS011;61893;50.074;14.440;2022-09-30T02:35:08;22.40;;;13.60;;
73015;SDS011;61893;50.074;14.440;2022-09-30T02:37:37;22.25;;;13.65;;
73015;SDS011;61893;50.074;14.440;2022-09-30T02:40:21;20.52;;;12.95;;
73015;SDS011;61893;50.074;14.440;2022-09-30T02:43:07;21.52;;;13.05;;
73015;SDS011;61893;50.074;14.440;2022-09-30T02:52:09;21.52;;;13.63;;
73015;SDS011;61893;50.074;14.440;2022-09-30T02:54:29;22.98;;;12.80;;
73015;SDS011;61893;50.074;14.440;2022-09-30T02:56:57;22.33;;;13.10;;
73015;SDS011;61893;50.074;14.440;2022-09-30T02:59:31;20.10;;;12.07;;
73015;SDS011;61893;50.074;14.440;2022-09-30T03:01:57;21.73;;;12.68;;
73015;SDS011;61893;50.074;14.440;2022-09-30T03:04:28;21.95;;;13.18;;
73015;SDS011;61893;50.074;14.440;2022-09-30T03:07:02;20.55;;;12.68;;
73015;SDS011;61893;50.074;14.440;2022-09-30T03:09:28;22.38;;;13.60;;
73015;SDS011;61893;50.074;14.440;2022-09-30T03:11:54;23.38;;;13.63;;
73015;SDS011;61893;50.074;14.440;2022-09-30T03:17:59;22.30;;;13.27;;
73015;SDS011;61893;50.074;14.440;2022-09-30T03:20:44;23.10;;;13.05;;
73015;SDS011;61893;50.074;14.440;2022-09-30T03:23:22;20.90;;;13.13;;
73015;SDS011;61893;50.074;14.440;2022-09-30T03:28:51;21.92;;;13.20;;
73015;SDS011;61893;50.074;14.440;2022-09-30T03:31:39;21.63;;;12.80;;
73015;SDS011;61893;50.074;14.440;2022-09-30T03:34:24;20.45;;;13.07;;
73015;SDS011;61893;50.074;14.440;2022-09-30T03:39:35;23.70;;;12.52;;
73015;SDS011;61893;50.074;14.440;2022-09-30T03:42:14;21.75;;;13.27;;
73015;SDS011;61893;50.074;14.440;2022-09-30T03:45:06;23.60;;;13.20;;
73015;SDS011;61893;50.074;14.440;2022-09-30T03:47:48;25.33;;;13.70;;
73015;SDS011;61893;50.074;14.440;2022-09-30T03:50:18;21.77;;;12.63;;
73015;SDS011;61893;50.074;14.440;2022-09-30T03:52:49;21.83;;;13.27;;
73015;SDS011;61893;50.074;14.440;2022-09-30T03:55:18;24.35;;;13.48;;
73015;SDS011;61893;50.074;14.440;2022-09-30T03:57:46;25.73;;;14.85;;
73015;SDS011;61893;50.074;14.440;2022-09-30T04:00:13;23.73;;;14.00;;
73015;SDS011;61893;50.074;14.440;2022-09-30T04:02:40;21.10;;;13.45;;
73015;SDS011;61893;50.074;14.440;2022-09-30T04:05:06;22.73;;;13.85;;
73015;SDS011;61893;50.074;14.440;2022-09-30T04:07:33;21.38;;;13.07;;
73015;SDS011;61893;50.074;14.440;2022-09-30T04:10:00;21.52;;;12.95;;
73015;SDS011;61893;50.074;14.440;2022-09-30T04:12:25;22.88;;;13.20;;
73015;SDS011;61893;50.074;14.440;2022-09-30T04:14:51;25.63;;;15.30;;
73015;SDS011;61893;50.074;14.440;2022-09-30T04:17:17;22.00;;;13.43;;
73015;SDS011;61893;50.074;14.440;2022-09-30T04:19:43;21.33;;;12.73;;
73015;SDS011;61893;50.074;14.440;2022-09-30T04:22:09;24.95;;;14.50;;
73015;SDS011;61893;50.074;14.440;2022-09-30T04:24:35;24.08;;;12.73;;
73015;SDS011;61893;50.074;14.440;2022-09-30T04:27:02;25.25;;;14.38;;
73015;SDS011;61893;50.074;14.440;2022-09-30T04:29:28;24.98;;;14.00;;
73015;SDS011;61893;50.074;14.440;2022-09-30T04:31:54;28.95;;;14.43;;
73015;SDS011;61893;50.074;14.440;2022-09-30T04:34:20;33.33;;;18.27;;
73015;SDS011;61893;50.074;14.440;2022-09-30T04:36:48;27.08;;;14.52;;
73015;SDS011;61893;50.074;14.440;2022-09-30T04:39:14;22.45;;;13.00;;
73015;SDS011;61893;50.074;14.440;2022-09-30T04:41:40;27.25;;;14.80;;
73015;SDS011;61893;50.074;14.440;2022-09-30T04:44:06;24.65;;;14.30;;
73015;SDS011;61893;50.074;14.440;2022-09-30T04:46:32;27.98;;;15.10;;
73015;SDS011;61893;50.074;14.440;2022-09-30T04:49:11;21.88;;;13.57;;
73015;SDS011;61893;50.074;14.440;2022-09-30T04:51:40;21.15;;;12.27;;
73015;SDS011;61893;50.074;14.440;2022-09-30T04:54:08;27.00;;;14.07;;
73015;SDS011;61893;50.074;14.440;2022-09-30T04:56:33;22.25;;;12.55;;
73015;SDS011;61893;50.074;14.440;2022-09-30T04:58:59;24.50;;;13.50;;
73015;SDS011;61893;50.074;14.440;2022-09-30T05:01:27;24.10;;;13.48;;
73015;SDS011;61893;50.074;14.440;2022-09-30T05:03:53;20.10;;;12.55;;
73015;SDS011;61893;50.074;14.440;2022-09-30T05:06:19;23.58;;;14.10;;
73015;SDS011;61893;50.074;14.440;2022-09-30T05:09:02;21.42;;;12.55;;
73015;SDS011;61893;50.074;14.440;2022-09-30T05:11:28;25.27;;;14.05;;
73015;SDS011;61893;50.074;14.440;2022-09-30T05:13:53;20.60;;;12.57;;
73015;SDS011;61893;50.074;14.440;2022-09-30T05:16:22;22.77;;;12.90;;
73015;SDS011;61893;50.074;14.440;2022-09-30T05:18:48;22.08;;;13.32;;
73015;SDS011;61893;50.074;14.440;2022-09-30T05:21:15;21.48;;;13.77;;
73015;SDS011;61893;50.074;14.440;2022-09-30T05:23:45;22.40;;;12.68;;
73015;SDS011;61893;50.074;14.440;2022-09-30T05:26:11;22.08;;;12.75;;
73015;SDS011;61893;50.074;14.440;2022-09-30T05:28:37;20.98;;;13.13;;
73015;SDS011;61893;50.074;14.440;2022-09-30T05:31:04;20.23;;;12.90;;
73015;SDS011;61893;50.074;14.440;2022-09-30T05:33:33;22.67;;;13.77;;
73015;SDS011;61893;50.074;14.440;2022-09-30T05:36:01;25.45;;;13.50;;
73015;SDS011;61893;50.074;14.440;2022-09-30T05:38:28;20.40;;;12.95;;
73015;SDS011;61893;50.074;14.440;2022-09-30T05:40:54;20.05;;;13.25;;
73015;SDS011;61893;50.074;14.440;2022-09-30T05:43:20;24.80;;;13.75;;
73015;SDS011;61893;50.074;14.440;2022-09-30T05:45:55;22.00;;;12.93;;
73015;SDS011;61893;50.074;14.440;2022-09-30T05:48:22;25.77;;;14.52;;
73015;SDS011;61893;50.074;14.440;2022-09-30T05:51:02;20.42;;;12.82;;
73015;SDS011;61893;50.074;14.440;2022-09-30T05:53:29;21.60;;;13.05;;
73015;SDS011;61893;50.074;14.440;2022-09-30T05:55:56;25.52;;;12.98;;
73015;SDS011;61893;50.074;14.440;2022-09-30T05:58:22;20.70;;;12.45;;
73015;SDS011;61893;50.074;14.440;2022-09-30T06:00:49;26.92;;;13.40;;
73015;SDS011;61893;50.074;14.440;2022-09-30T06:03:15;20.27;;;12.55;;
73015;SDS011;61893;50.074;14.440;2022-09-30T06:05:42;19.63;;;12.70;;
73015;SDS011;61893;50.074;14.440;2022-09-30T06:08:10;22.52;;;12.65;;
73015;SDS011;61893;50.074;14.440;2022-09-30T06:10:38;24.63;;;13.23;;
73015;SDS011;61893;50.074;14.440;2022-09-30T06:13:06;23.52;;;12.82;;
73015;SDS011;61893;50.074;14.440;2022-09-30T06:15:35;23.95;;;13.45;;
73015;SDS011;61893;50.074;14.440;2022-09-30T06:18:03;24.25;;;13.20;;
73015;SDS011;61893;50.074;14.440;2022-09-30T06:20:28;22.42;;;13.40;;
73015;SDS011;61893;50.074;14.440;2022-09-30T06:22:57;25.88;;;13.10;;
73015;SDS011;61893;50.074;14.440;2022-09-30T06:25:26;23.23;;;13.30;;
73015;SDS011;61893;50.074;14.440;2022-09-30T06:27:53;22.75;;;13.43;;
73015;SDS011;61893;50.074;14.440;2022-09-30T06:30:19;21.50;;;13.05;;
73015;SDS011;61893;50.074;14.440;2022-09-30T06:32:46;21.10;;;12.43;;
73015;SDS011;61893;50.074;14.440;2022-09-30T06:35:11;24.00;;;13.15;;
73015;SDS011;61893;50.074;14.440;2022-09-30T06:37:37;24.90;;;13.63;;
73015;SDS011;61893;50.074;14.440;2022-09-30T06:40:03;23.17;;;13.82;;
73015;SDS011;61893;50.074;14.440;2022-09-30T06:42:30;22.77;;;13.98;;
73015;SDS011;61893;50.074;14.440;2022-09-30T06:44:57;23.92;;;13.18;;
73015;SDS011;61893;50.074;14.440;2022-09-30T06:47:22;22.00;;;12.98;;
73015;SDS011;61893;50.074;14.440;2022-09-30T06:49:48;26.40;;;13.93;;
73015;SDS011;61893;50.074;14.440;2022-09-30T06:52:15;22.27;;;13.45;;
73015;SDS011;61893;50.074;14.440;2022-09-30T06:54:41;25.35;;;14.15;;
73015;SDS011;61893;50.074;14.440;2022-09-30T06:57:08;21.95;;;13.55;;
73015;SDS011;61893;50.074;14.440;2022-09-30T06:59:54;26.40;;;13.60;;
73015;SDS011;61893;50.074;14.440;2022-09-30T07:02:21;23.30;;;13.82;;
73015;SDS011;61893;50.074;14.440;2022-09-30T07:04:48;26.42;;;13.23;;
73015;SDS011;61893;50.074;14.440;2022-09-30T07:07:14;21.88;;;13.68;;
73015;SDS011;61893;50.074;14.440;2022-09-30T07:09:41;23.02;;;13.50;;
73015;SDS011;61893;50.074;14.440;2022-09-30T07:12:07;20.83;;;13.48;;
73015;SDS011;61893;50.074;14.440;2022-09-30T07:14:33;25.92;;;14.05;;
73015;SDS011;61893;50.074;14.440;2022-09-30T07:17:00;23.67;;;14.48;;
73015;SDS011;61893;50.074;14.440;2022-09-30T07:19:28;24.80;;;15.07;;
73015;SDS011;61893;50.074;14.440;2022-09-30T07:21:56;23.83;;;14.48;;
73015;SDS011;61893;50.074;14.440;2022-09-30T07:24:43;30.42;;;14.77;;
73015;SDS011;61893;50.074;14.440;2022-09-30T07:27:09;26.80;;;14.05;;
73015;SDS011;61893;50.074;14.440;2022-09-30T07:29:52;25.35;;;14.35;;
73015;SDS011;61893;50.074;14.440;2022-09-30T07:32:21;22.80;;;13.40;;
73015;SDS011;61893;50.074;14.440;2022-09-30T07:34:47;26.63;;;14.73;;
73015;SDS011;61893;50.074;14.440;2022-09-30T07:37:14;22.15;;;13.30;;
73015;SDS011;61893;50.074;14.440;2022-09-30T07:39:42;22.48;;;13.82;;
73015;SDS011;61893;50.074;14.440;2022-09-30T07:42:09;25.65;;;15.27;;
73015;SDS011;61893;50.074;14.440;2022-09-30T07:44:37;23.60;;;14.52;;
73015;SDS011;61893;50.074;14.440;2022-09-30T07:47:09;25.45;;;14.88;;
73015;SDS011;61893;50.074;14.440;2022-09-30T07:49:36;29.27;;;14.48;;
73015;SDS011;61893;50.074;14.440;2022-09-30T07:52:03;26.00;;;14.75;;
73015;SDS011;61893;50.074;14.440;2022-09-30T07:54:30;23.17;;;14.32;;
73015;SDS011;61893;50.074;14.440;2022-09-30T07:56:58;26.70;;;14.55;;
73015;SDS011;61893;50.074;14.440;2022-09-30T07:59:26;26.63;;;13.68;;
73015;SDS011;61893;50.074;14.440;2022-09-30T08:01:53;25.90;;;14.93;;
73015;SDS011;61893;50.074;14.440;2022-09-30T08:04:19;28.17;;;15.93;;
73015;SDS011;61893;50.074;14.440;2022-09-30T08:06:47;26.50;;;15.80;;
73015;SDS011;61893;50.074;14.440;2022-09-30T08:09:15;28.67;;;15.73;;
73015;SDS011;61893;50.074;14.440;2022-09-30T08:11:45;28.77;;;16.30;;
73015;SDS011;61893;50.074;14.440;2022-09-30T08:14:12;35.50;;;17.23;;
73015;SDS011;61893;50.074;14.440;2022-09-30T08:16:40;29.52;;;16.77;;
73015;SDS011;61893;50.074;14.440;2022-09-30T08:19:12;28.92;;;15.95;;
73015;SDS011;61893;50.074;14.440;2022-09-30T08:21:41;27.70;;;15.93;;
73015;SDS011;61893;50.074;14.440;2022-09-30T08:24:11;25.17;;;15.93;;
73015;SDS011;61893;50.074;14.440;2022-09-30T08:26:39;26.33;;;15.35;;
73015;SDS011;61893;50.074;14.440;2022-09-30T08:29:06;26.67;;;16.10;;
73015;SDS011;61893;50.074;14.440;2022-09-30T08:31:31;27.02;;;16.20;;
73015;SDS011;61893;50.074;14.440;2022-09-30T08:33:57;29.52;;;16.50;;
73015;SDS011;61893;50.074;14.440;2022-09-30T08:36:25;25.48;;;14.95;;
73015;SDS011;61893;50.074;14.440;2022-09-30T08:38:52;25.85;;;15.00;;
73015;SDS011;61893;50.074;14.440;2022-09-30T08:46:56;21.52;;;14.38;;
73015;SDS011;61893;50.074;14.440;2022-09-30T08:52:03;22.15;;;14.23;;
73015;SDS011;61893;50.074;14.440;2022-09-30T08:54:35;24.58;;;14.50;;
73015;SDS011;61893;50.074;14.440;2022-09-30T08:57:04;24.52;;;15.10;;
73015;SDS011;61893;50.074;14.440;2022-09-30T08:59:34;24.30;;;14.43;;
73015;SDS011;61893;50.074;14.440;2022-09-30T09:02:26;22.00;;;13.27;;
73015;SDS011;61893;50.074;14.440;2022-09-30T09:04:58;24.08;;;13.77;;
73015;SDS011;61893;50.074;14.440;2022-09-30T09:08:00;20.58;;;13.23;;
73015;SDS011;61893;50.074;14.440;2022-09-30T09:10:39;21.35;;;12.77;;
73015;SDS011;61893;50.074;14.440;2022-09-30T09:16:01;21.10;;;12.05;;
73015;SDS011;61893;50.074;14.440;2022-09-30T09:19:02;22.30;;;12.82;;
73015;SDS011;61893;50.074;14.440;2022-09-30T09:24:29;20.48;;;13.05;;
73015;SDS011;61893;50.074;14.440;2022-09-30T09:27:05;19.77;;;13.20;;
73015;SDS011;61893;50.074;14.440;2022-09-30T09:32:30;20.23;;;12.15;;
73015;SDS011;61893;50.074;14.440;2022-09-30T09:34:58;18.50;;;12.13;;
73015;SDS011;61893;50.074;14.440;2022-09-30T09:37:34;17.88;;;11.55;;
73015;SDS011;61893;50.074;14.440;2022-09-30T09:46:21;20.63;;;11.82;;
73015;SDS011;61893;50.074;14.440;2022-09-30T09:51:41;21.02;;;13.07;;
73015;SDS011;61893;50.074;14.440;2022-09-30T09:54:12;19.13;;;12.07;;
73015;SDS011;61893;50.074;14.440;2022-09-30T09:56:43;19.05;;;12.05;;
73015;SDS011;61893;50.074;14.440;2022-09-30T09:59:15;17.85;;;11.48;;
73015;SDS011;61893;50.074;14.440;2022-09-30T10:01:44;17.45;;;11.38;;
73015;SDS011;61893;50.074;14.440;2022-09-30T10:04:22;18.60;;;11.05;;
73015;SDS011;61893;50.074;14.440;2022-09-30T10:14:54;12.88;;;9.15;;
73015;SDS011;61893;50.074;14.440;2022-09-30T10:17:40;14.15;;;8.32;;
73015;SDS011;61893;50.074;14.440;2022-09-30T10:23:24;12.43;;;8.35;;
73015;SDS011;61893;50.074;14.440;2022-09-30T10:28:32;14.32;;;8.00;;
73015;SDS011;61893;50.074;14.440;2022-09-30T10:31:01;11.23;;;7.70;;
73015;SDS011;61893;50.074;14.440;2022-09-30T10:33:40;12.40;;;7.40;;
73015;SDS011;61893;50.074;14.440;2022-09-30T10:36:19;15.02;;;8.48;;
73015;SDS011;61893;50.074;14.440;2022-09-30T10:38:47;15.23;;;8.90;;
73015;SDS011;61893;50.074;14.440;2022-09-30T10:41:25;12.52;;;8.60;;
73015;SDS011;61893;50.074;14.440;2022-09-30T10:43:55;12.05;;;8.30;;
73015;SDS011;61893;50.074;14.440;2022-09-30T10:46:30;13.63;;;8.95;;
73015;SDS011;61893;50.074;14.440;2022-09-30T10:48:59;13.30;;;8.45;;
73015;SDS011;61893;50.074;14.440;2022-09-30T10:51:38;13.02;;;8.63;;
73015;SDS011;61893;50.074;14.440;2022-09-30T10:54:14;10.57;;;7.25;;
73015;SDS011;61893;50.074;14.440;2022-09-30T10:57:04;17.92;;;7.47;;
73015;SDS011;61893;50.074;14.440;2022-09-30T10:59:38;10.85;;;7.55;;
73015;SDS011;61893;50.074;14.440;2022-09-30T11:02:17;13.25;;;8.38;;
73015;SDS011;61893;50.074;14.440;2022-09-30T11:04:56;10.88;;;7.82;;
73015;SDS011;61893;50.074;14.440;2022-09-30T11:07:31;13.40;;;7.75;;
73015;SDS011;61893;50.074;14.440;2022-09-30T11:13:17;13.98;;;7.28;;
73015;SDS011;61893;50.074;14.440;2022-09-30T11:29:34;9.25;;;6.30;;
73015;SDS011;61893;50.074;14.440;2022-09-30T11:32:17;11.68;;;6.88;;
73015;SDS011;61893;50.074;14.440;2022-09-30T11:40:55;9.82;;;5.90;;
73015;SDS011;61893;50.074;14.440;2022-09-30T11:43:56;7.03;;;5.22;;
73015;SDS011;61893;50.074;14.440;2022-09-30T11:52:28;6.82;;;4.28;;
73015;SDS011;61893;50.074;14.440;2022-09-30T12:00:29;5.20;;;3.95;;
73015;SDS011;61893;50.074;14.440;2022-09-30T12:03:08;6.65;;;3.55;;
73015;SDS011;61893;50.074;14.440;2022-09-30T12:05:45;6.30;;;3.60;;
73015;SDS011;61893;50.074;14.440;2022-09-30T12:08:35;4.65;;;3.38;;
73015;SDS011;61893;50.074;14.440;2022-09-30T12:13:42;5.80;;;3.33;;
73015;SDS011;61893;50.074;14.440;2022-09-30T12:16:21;5.45;;;4.00;;
73015;SDS011;61893;50.074;14.440;2022-09-30T12:19:15;6.75;;;3.95;;
73015;SDS011;61893;50.074;14.440;2022-09-30T12:22:29;6.82;;;3.47;;
73015;SDS011;61893;50.074;14.440;2022-09-30T12:24:35;5.55;;;3.47;;
73015;SDS011;61893;50.074;14.440;2022-09-30T12:27:03;4.65;;;3.40;;
73015;SDS011;61893;50.074;14.440;2022-09-30T12:29:38;5.75;;;3.47;;
73015;SDS011;61893;50.074;14.440;2022-09-30T12:32:35;7.30;;;3.72;;
73015;SDS011;61893;50.074;14.440;2022-09-30T12:35:11;6.07;;;3.72;;
73015;SDS011;61893;50.074;14.440;2022-09-30T12:38:09;4.75;;;3.80;;
73015;SDS011;61893;50.074;14.440;2022-09-30T12:43:45;6.32;;;5.05;;
73015;SDS011;61893;50.074;14.440;2022-09-30T12:49:03;5.97;;;4.55;;
73015;SDS011;61893;50.074;14.440;2022-09-30T12:51:34;7.53;;;4.90;;
73015;SDS011;61893;50.074;14.440;2022-09-30T12:54:12;7.30;;;4.90;;
73015;SDS011;61893;50.074;14.440;2022-09-30T12:56:43;9.02;;;5.18;;
73015;SDS011;61893;50.074;14.440;2022-09-30T12:59:11;6.65;;;4.90;;
73015;SDS011;61893;50.074;14.440;2022-09-30T13:01:39;6.70;;;4.18;;
73015;SDS011;61893;50.074;14.440;2022-09-30T13:11:44;6.72;;;3.78;;
73015;SDS011;61893;50.074;14.440;2022-09-30T13:14:38;4.60;;;3.00;;
73015;SDS011;61893;50.074;14.440;2022-09-30T13:19:51;4.47;;;3.30;;
73015;SDS011;61893;50.074;14.440;2022-09-30T13:25:10;7.07;;;3.95;;
73015;SDS011;61893;50.074;14.440;2022-09-30T13:32:43;5.93;;;3.85;;
73015;SDS011;61893;50.074;14.440;2022-09-30T13:35:34;4.75;;;3.40;;
73015;SDS011;61893;50.074;14.440;2022-09-30T13:41:13;7.68;;;3.97;;
73015;SDS011;61893;50.074;14.440;2022-09-30T13:46:33;8.05;;;4.15;;
73015;SDS011;61893;50.074;14.440;2022-09-30T13:51:58;6.80;;;4.38;;
73015;SDS011;61893;50.074;14.440;2022-09-30T13:57:02;6.60;;;4.22;;
73015;SDS011;61893;50.074;14.440;2022-09-30T13:59:49;4.85;;;3.58;;
73015;SDS011;61893;50.074;14.440;2022-09-30T14:22:01;5.25;;;4.60;;
73015;SDS011;61893;50.074;14.440;2022-09-30T14:32:45;6.67;;;4.00;;
73015;SDS011;61893;50.074;14.440;2022-09-30T14:35:24;4.68;;;3.50;;
73015;SDS011;61893;50.074;14.440;2022-09-30T14:38:00;6.18;;;3.83;;
73015;SDS011;61893;50.074;14.440;2022-09-30T14:40:29;10.07;;;3.80;;
73015;SDS011;61893;50.074;14.440;2022-09-30T14:43:01;7.20;;;3.50;;
73015;SDS011;61893;50.074;14.440;2022-09-30T14:45:32;5.18;;;3.40;;
73015;SDS011;61893;50.074;14.440;2022-09-30T14:48:05;5.15;;;3.38;;
73015;SDS011;61893;50.074;14.440;2022-09-30T14:50:35;5.55;;;3.63;;
73015;SDS011;61893;50.074;14.440;2022-09-30T14:53:21;5.25;;;3.30;;
73015;SDS011;61893;50.074;14.440;2022-09-30T14:55:49;4.50;;;3.40;;
73015;SDS011;61893;50.074;14.440;2022-09-30T15:00:43;5.63;;;3.60;;
73015;SDS011;61893;50.074;14.440;2022-09-30T15:03:12;5.47;;;3.55;;
73015;SDS011;61893;50.074;14.440;2022-09-30T15:05:38;4.80;;;3.97;;
73015;SDS011;61893;50.074;14.440;2022-09-30T15:08:09;9.63;;;4.45;;
73015;SDS011;61893;50.074;14.440;2022-09-30T15:10:46;7.18;;;4.22;;
73015;SDS011;61893;50.074;14.440;2022-09-30T15:13:14;4.28;;;3.30;;
73015;SDS011;61893;50.074;14.440;2022-09-30T15:15:41;4.15;;;2.60;;
73015;SDS011;61893;50.074;14.440;2022-09-30T15:18:26;2.95;;;2.67;;
73015;SDS011;61893;50.074;14.440;2022-09-30T15:20:58;4.15;;;2.88;;
73015;SDS011;61893;50.074;14.440;2022-09-30T15:23:46;6.63;;;2.90;;
73015;SDS011;61893;50.074;14.440;2022-09-30T15:26:16;4.13;;;3.00;;
73015;SDS011;61893;50.074;14.440;2022-09-30T15:28:45;4.25;;;3.13;;
73015;SDS011;61893;50.074;14.440;2022-09-30T15:31:27;4.97;;;2.80;;
73015;SDS011;61893;50.074;14.440;2022-09-30T15:34:02;5.90;;;3.00;;
73015;SDS011;61893;50.074;14.440;2022-09-30T15:36:30;4.95;;;3.00;;
73015;SDS011;61893;50.074;14.440;2022-09-30T15:38:56;4.70;;;3.30;;
73015;SDS011;61893;50.074;14.440;2022-09-30T15:41:21;4.65;;;3.03;;
73015;SDS011;61893;50.074;14.440;2022-09-30T15:43:51;4.25;;;2.70;;
73015;SDS011;61893;50.074;14.440;2022-09-30T15:48:47;4.43;;;3.00;;
73015;SDS011;61893;50.074;14.440;2022-09-30T15:51:27;4.60;;;2.90;;
73015;SDS011;61893;50.074;14.440;2022-09-30T15:56:39;5.25;;;3.22;;
73015;SDS011;61893;50.074;14.440;2022-09-30T15:59:07;5.50;;;3.25;;
73015;SDS011;61893;50.074;14.440;2022-09-30T16:01:47;3.38;;;2.67;;
73015;SDS011;61893;50.074;14.440;2022-09-30T16:09:19;6.50;;;3.30;;
73015;SDS011;61893;50.074;14.440;2022-09-30T16:11:55;5.25;;;2.90;;
73015;SDS011;61893;50.074;14.440;2022-09-30T16:14:23;4.65;;;2.70;;
73015;SDS011;61893;50.074;14.440;2022-09-30T16:16:54;3.83;;;2.38;;
73015;SDS011;61893;50.074;14.440;2022-09-30T16:19:22;3.50;;;2.47;;
73015;SDS011;61893;50.074;14.440;2022-09-30T16:21:51;4.07;;;2.60;;
73015;SDS011;61893;50.074;14.440;2022-09-30T16:26:55;6.35;;;2.78;;
73015;SDS011;61893;50.074;14.440;2022-09-30T16:29:22;6.38;;;2.95;;
73015;SDS011;61893;50.074;14.440;2022-09-30T16:31:53;4.72;;;3.30;;
73015;SDS011;61893;50.074;14.440;2022-09-30T16:34:21;6.72;;;3.72;;
73015;SDS011;61893;50.074;14.440;2022-09-30T16:36:49;4.95;;;2.83;;
73015;SDS011;61893;50.074;14.440;2022-09-30T16:39:16;6.32;;;2.70;;
73015;SDS011;61893;50.074;14.440;2022-09-30T16:41:43;4.43;;;3.00;;
73015;SDS011;61893;50.074;14.440;2022-09-30T16:44:10;7.75;;;3.20;;
73015;SDS011;61893;50.074;14.440;2022-09-30T16:46:36;6.63;;;3.72;;
73015;SDS011;61893;50.074;14.440;2022-09-30T16:49:12;8.82;;;5.15;;
73015;SDS011;61893;50.074;14.440;2022-09-30T16:51:40;9.35;;;6.07;;
73015;SDS011;61893;50.074;14.440;2022-09-30T16:54:09;8.48;;;3.85;;
73015;SDS011;61893;50.074;14.440;2022-09-30T16:56:36;9.85;;;4.35;;
73015;SDS011;61893;50.074;14.440;2022-09-30T16:59:02;7.85;;;3.90;;
73015;SDS011;61893;50.074;14.440;2022-09-30T17:01:28;5.85;;;3.95;;
73015;SDS011;61893;50.074;14.440;2022-09-30T17:03:55;7.45;;;4.18;;
73015;SDS011;61893;50.074;14.440;2022-09-30T17:06:27;6.70;;;3.50;;
73015;SDS011;61893;50.074;14.440;2022-09-30T17:08:54;6.90;;;4.03;;
73015;SDS011;61893;50.074;14.440;2022-09-30T17:11:24;6.30;;;4.20;;
73015;SDS011;61893;50.074;14.440;2022-09-30T17:13:56;5.63;;;3.53;;
73015;SDS011;61893;50.074;14.440;2022-09-30T17:16:22;5.82;;;3.60;;
73015;SDS011;61893;50.074;14.440;2022-09-30T17:18:49;8.57;;;4.35;;
73015;SDS011;61893;50.074;14.440;2022-09-30T17:21:19;9.95;;;4.50;;
73015;SDS011;61893;50.074;14.440;2022-09-30T17:23:47;7.80;;;4.50;;
73015;SDS011;61893;50.074;14.440;2022-09-30T17:26:13;7.70;;;4.40;;
73015;SDS011;61893;50.074;14.440;2022-09-30T17:28:39;7.20;;;3.97;;
73015;SDS011;61893;50.074;14.440;2022-09-30T17:31:04;7.07;;;4.55;;
73015;SDS011;61893;50.074;14.440;2022-09-30T17:33:33;8.15;;;4.55;;
73015;SDS011;61893;50.074;14.440;2022-09-30T17:36:03;9.75;;;5.22;;
73015;SDS011;61893;50.074;14.440;2022-09-30T17:38:30;8.07;;;4.57;;
73015;SDS011;61893;50.074;14.440;2022-09-30T17:40:57;9.27;;;5.57;;
73015;SDS011;61893;50.074;14.440;2022-09-30T17:43:42;8.55;;;5.00;;
73015;SDS011;61893;50.074;14.440;2022-09-30T17:46:10;7.07;;;5.10;;
73015;SDS011;61893;50.074;14.440;2022-09-30T17:48:36;12.88;;;6.32;;
73015;SDS011;61893;50.074;14.440;2022-09-30T17:51:03;12.95;;;6.82;;
73015;SDS011;61893;50.074;14.440;2022-09-30T17:53:30;12.13;;;6.03;;
73015;SDS011;61893;50.074;14.440;2022-09-30T17:56:00;12.90;;;5.90;;
73015;SDS011;61893;50.074;14.440;2022-09-30T17:58:29;10.60;;;5.47;;
73015;SDS011;61893;50.074;14.440;2022-09-30T18:00:55;11.52;;;6.30;;